Sun Universe — 3FOQ4 — position and weather

sailwx.info

Track history (hours):
 
Tides and Currents Weather Stations Pressure Air Temp Water Temp Dewpoint Dewpoint Depression Visibility Wind Speed Wind Dir Waves Ship Positions

Sun Universe

Last reported at 2015-May-19 12:33 UTC. Time now 2015-May-28 18:13 UTC.
Position N 25°21' E 119°58'.
Warning: this ship's position is 9 days out of date.

Length 116 m; draft 5.2 m.

Type: Cargo ship. MMSI: 371647000.

Date/timePositionNaut miles runAvg speedWind from/ knotsBaromVisibWave heightAir tempDewpointWater temp
2015-May-19 12:33N 25°21' E 119°58'1614.6
2015-May-19 11:28N 25°10' E 119°45'1915.8
2015-May-19 10:15N 24°57' E 119°30'1116.2
2015-May-19 09:33N 24°50' E 119°21'1615.7
2015-May-19 08:33N 24°39' E 119°08'1514.8
2015-May-19 07:33N 24°29' E 118°56'1414.2
2015-May-19 06:33N 24°20' E 118°44'1414.2
2015-May-19 05:33N 24°11' E 118°32'1413.9
2015-May-19 04:33N 24°01' E 118°21'1514.8
2015-May-19 03:32N 23°51' E 118°09'1414.7
2015-May-19 02:33N 23°42' E 117°57'1615.5
2015-May-19 01:32N 23°31' E 117°44'3315.4
2015-May-18 23:22N 23°09' E 117°17'1314.3
2015-May-18 22:27N 23°03' E 117°05'1413.9
2015-May-18 21:27N 22°56' E 116°51'1313.7
2015-May-18 20:32N 22°50' E 116°39'12014.6
2015-May-18 12:17N 22°11' E 114°36'1114.9
2015-May-18 11:33N 22°06' E 114°25'16 0.9
2015-May-17 19:05N 22°02' E 114°09'0 0.0
2015-May-17 13:29N 22°02' E 114°09'0 0.0
2015-May-16 23:08N 22°02' E 114°09'0 0.0
2015-May-16 20:14N 22°02' E 114°09'0 0.0
2015-May-16 10:32N 22°02' E 114°09'0 0.0
2015-May-16 09:11N 22°02' E 114°09'0 0.0
2015-May-15 19:29N 22°02' E 114°09'0 0.0
2015-May-15 12:29N 22°02' E 114°09'0 0.0
2015-May-15 00:08N 22°02' E 114°09'0 0.0
2015-May-14 23:32N 22°02' E 114°09'0 0.0
2015-May-14 22:23N 22°02' E 114°09'0 0.0
2015-May-14 21:29N 22°02' E 114°09'0 0.0
2015-May-14 20:26N 22°02' E 114°09'0 0.0
2015-May-14 19:32N 22°02' E 114°09'0 0.0
2015-May-14 18:32N 22°02' E 114°09'0 0.0
2015-May-14 09:32N 22°02' E 114°09'0 0.0
2015-May-14 00:23N 22°02' E 114°09'0 0.0
2015-May-13 23:29N 22°02' E 114°09'0 0.0
2015-May-13 22:29N 22°02' E 114°09'0 0.0
2015-May-13 21:29N 22°02' E 114°09'0 0.0
2015-May-13 14:12N 22°02' E 114°09'3 5.3
2015-May-13 13:33N 22°02' E 114°05'1010.0
2015-May-13 12:30N 22°01' E 113°54'1010.2
2015-May-13 11:33N 22°09' E 113°48'1212.2
2015-May-13 10:34N 22°21' E 113°47'19 0.6
2015-May-12 04:22N 22°38' E 113°41'910.7
2015-May-12 03:32N 22°30' E 113°45'1111.0
2015-May-12 02:33N 22°20' E 113°48'1110.5
2015-May-12 01:33N 22°09' E 113°47'4 3.9
2015-May-12 00:32N 22°06' E 113°51'3 2.5
2015-May-11 23:28N 22°05' E 113°53'0 0.0
2015-May-11 19:10N 22°05' E 113°53'0 0.1
2015-May-11 17:04N 22°05' E 113°53'0 0.0
2015-May-11 15:04N 22°05' E 113°53'0 0.1
2015-May-11 14:28N 22°05' E 113°53'0 0.0
2015-May-11 09:10N 22°05' E 113°53'0 0.1
2015-May-11 07:04N 22°05' E 113°53'0 0.0
2015-May-11 04:28N 22°05' E 113°53'0 0.1
2015-May-11 03:29N 22°05' E 113°53'27 8.2
2015-May-11 00:09N 22°01' E 114°22'25211.7
2015-May-10 02:32N 24°02' E 118°22'2712.6
2015-May-10 00:22N 24°20' E 118°44'1513.1
2015-May-09 23:14N 24°30' E 118°57'913.3
2015-May-09 22:34N 24°36' E 119°04'1313.3
2015-May-09 21:33N 24°45' E 119°15'  
Track history (hours):
 
Tides and Currents Weather Stations Pressure Air Temp Water Temp Dewpoint Dewpoint Depression Visibility Wind Speed Wind Dir Waves Ship Positions

Sun Universe

Last reported at 2015-May-19 12:33 UTC. Time now 2015-May-28 18:13 UTC.
Position N 25°21' E 119°58'.
Warning: this ship's position is 9 days out of date.

Length 116 m; draft 5.2 m.

Type: Cargo ship. MMSI: 371647000.

Date/timePositionNaut miles runAvg speedWind from/ knotsBaromVisibWave heightAir tempDewpointWater temp
2015-May-19 12:33N 25°21' E 119°58'1614.6
2015-May-19 11:28N 25°10' E 119°45'1915.8
2015-May-19 10:15N 24°57' E 119°30'1116.2
2015-May-19 09:33N 24°50' E 119°21'1615.7
2015-May-19 08:33N 24°39' E 119°08'1514.8
2015-May-19 07:33N 24°29' E 118°56'1414.2
2015-May-19 06:33N 24°20' E 118°44'1414.2
2015-May-19 05:33N 24°11' E 118°32'1413.9
2015-May-19 04:33N 24°01' E 118°21'1514.8
2015-May-19 03:32N 23°51' E 118°09'1414.7
2015-May-19 02:33N 23°42' E 117°57'1615.5
2015-May-19 01:32N 23°31' E 117°44'3315.4
2015-May-18 23:22N 23°09' E 117°17'1314.3
2015-May-18 22:27N 23°03' E 117°05'1413.9
2015-May-18 21:27N 22°56' E 116°51'1313.7
2015-May-18 20:32N 22°50' E 116°39'12014.6
2015-May-18 12:17N 22°11' E 114°36'1114.9
2015-May-18 11:33N 22°06' E 114°25'16 0.9
2015-May-17 19:05N 22°02' E 114°09'0 0.0
2015-May-17 13:29N 22°02' E 114°09'0 0.0
2015-May-16 23:08N 22°02' E 114°09'0 0.0
2015-May-16 20:14N 22°02' E 114°09'0 0.0
2015-May-16 10:32N 22°02' E 114°09'0 0.0
2015-May-16 09:11N 22°02' E 114°09'0 0.0
2015-May-15 19:29N 22°02' E 114°09'0 0.0
2015-May-15 12:29N 22°02' E 114°09'0 0.0
2015-May-15 00:08N 22°02' E 114°09'0 0.0
2015-May-14 23:32N 22°02' E 114°09'0 0.0
2015-May-14 22:23N 22°02' E 114°09'0 0.0
2015-May-14 21:29N 22°02' E 114°09'0 0.0
2015-May-14 20:26N 22°02' E 114°09'0 0.0
2015-May-14 19:32N 22°02' E 114°09'0 0.0
2015-May-14 18:32N 22°02' E 114°09'0 0.0
2015-May-14 09:32N 22°02' E 114°09'0 0.0
2015-May-14 00:23N 22°02' E 114°09'0 0.0
2015-May-13 23:29N 22°02' E 114°09'0 0.0
2015-May-13 22:29N 22°02' E 114°09'0 0.0
2015-May-13 21:29N 22°02' E 114°09'0 0.0
2015-May-13 14:12N 22°02' E 114°09'3 5.3
2015-May-13 13:33N 22°02' E 114°05'1010.0
2015-May-13 12:30N 22°01' E 113°54'1010.2
2015-May-13 11:33N 22°09' E 113°48'1212.2
2015-May-13 10:34N 22°21' E 113°47'19 0.6
2015-May-12 04:22N 22°38' E 113°41'910.7
2015-May-12 03:32N 22°30' E 113°45'1111.0
2015-May-12 02:33N 22°20' E 113°48'1110.5
2015-May-12 01:33N 22°09' E 113°47'4 3.9
2015-May-12 00:32N 22°06' E 113°51'3 2.5
2015-May-11 23:28N 22°05' E 113°53'0 0.0
2015-May-11 19:10N 22°05' E 113°53'0 0.1
2015-May-11 17:04N 22°05' E 113°53'0 0.0
2015-May-11 15:04N 22°05' E 113°53'0 0.1
2015-May-11 14:28N 22°05' E 113°53'0 0.0
2015-May-11 09:10N 22°05' E 113°53'0 0.1
2015-May-11 07:04N 22°05' E 113°53'0 0.0
2015-May-11 04:28N 22°05' E 113°53'0 0.1
2015-May-11 03:29N 22°05' E 113°53'27 8.2
2015-May-11 00:09N 22°01' E 114°22'25211.7
2015-May-10 02:32N 24°02' E 118°22'2712.6
2015-May-10 00:22N 24°20' E 118°44'1513.1
2015-May-09 23:14N 24°30' E 118°57'913.3
2015-May-09 22:34N 24°36' E 119°04'1313.3
2015-May-09 21:33N 24°45' E 119°15'  

Dump ship's entire track history